Terminal Aerodrome Forecast
Issued by NWS Corpus Christi, TX

Home | Current Version | Previous Version | Text Only | Print | Product List | Glossary On
Versions: 1 2 3 4 5 6 7 8 9 10 11 12 13 14 15 16 17 18 19 20 21
692
FTUS44 KCRP 302340
TAFCRP
TAF
KCRP 302340Z 0100/0124 09012KT P6SM SCT050 BKN250
     FM010300 11008KT P6SM SCT015 BKN250
     FM010900 11005KT 5SM BR SCT010
      TEMPO 0110/0112 BKN010
     FM011500 11012KT 6SM HZ BKN020
     FM011800 12015G20KT P6SM SCT030 PROB30 0120/0122 VRB20G30KT 5SM
      TSRA BKN025CB=

USA.gov is the U.S. government's official web portal to all federal, state and local government web resources and services.